Time;durP1;ratioP1;P1;durP2;ratioP2;P2;SDS_P1;SDS_P2;PMS_P1;PMS_P2;Temp;Humidity;BMP_temperature;BMP_pressure;BME280_temperature;BME280_humidity;BME280_pressure;Samples;Min_cycle;Max_cycle;Signal;HPM_P1;HPM_P2
2023/11/14 00:02:07;;;;;;;;;;;;;;;;;;5008250;28;20669;-68
2023/11/14 00:04:33;;;;;;;;;;;;;;;;;;5007481;28;19928;-68
2023/11/14 00:07:01;;;;;;;;;;;;;;;;;;5011610;28;19917;-68
2023/11/14 00:09:27;;;;;;;;;;;;;;;;;;5000701;28;20072;-68
2023/11/14 00:11:53;;;;;;;;;;;;;;;;;;5011825;28;19924;-68
2023/11/14 00:14:21;;;;;;;;;;;;;;;;;;5005621;28;19916;-69
2023/11/14 00:16:46;;;;;;;;;;;;;;;;;;5008101;28;20260;-68
2023/11/14 00:19:13;;;;;;;;;;;;;;;;;;4971305;28;20013;-68
2023/11/14 00:21:39;;;;;;;;;;;;;;;;;;4974446;28;20212;-69
2023/11/14 00:24:05;;;;;;;;;;;;;;;;;;4977567;28;19921;-68
2023/11/14 00:26:31;;;;;;;;;;;;;;;;;;4973798;28;19917;-68
2023/11/14 00:28:58;;;;;;;;;;;;;;;;;;4991241;28;19917;-68
2023/11/14 00:31:24;;;;;;;;;;;;;;;;;;4972333;28;19921;-67
2023/11/14 00:33:50;;;;;;;;;;;;;;;;;;4973271;28;20256;-66
2023/11/14 00:36:15;;;;;;;;;;;;;;;;;;4969369;28;20073;-68
2023/11/14 00:38:41;;;;;;;;;;;;;;;;;;4974388;28;19928;-67
2023/11/14 00:41:07;;;;;;;;;;;;;;;;;;4977895;28;19936;-68
2023/11/14 00:43:33;;;;;;;;;;;;;;;;;;4969953;28;20645;-68
2023/11/14 00:45:59;;;;;;;;;;;;;;;;;;4973804;28;19913;-68
2023/11/14 00:48:25;;;;;;;;;;;;;;;;;;4968527;28;19925;-67
2023/11/14 00:50:51;;;;;;;;;;;;;;;;;;4981700;28;19932;-68
2023/11/14 00:53:17;;;;;;;;;;;;;;;;;;4975049;28;19992;-67
2023/11/14 00:55:43;;;;;;;;;;;;;;;;;;5004464;28;19918;-67
2023/11/14 00:58:10;;;;;;;;;;;;;;;;;;5001872;28;19920;-68
2023/11/14 01:00:36;;;;;;;;;;;;;;;;;;5004092;28;19928;-67
2023/11/14 01:03:02;;;;;;;;;;;;;;;;;;5004210;28;19917;-69
2023/11/14 01:05:28;;;;;;;;;;;;;;;;;;4999909;28;19979;-67
2023/11/14 01:07:54;;;;;;;;;;;;;;;;;;5004795;28;20016;-68
2023/11/14 01:10:21;;;;;;;;;;;;;;;;;;5019464;28;19923;-69
2023/11/14 01:12:47;;;;;;;;;;;;;;;;;;5013513;28;20939;-67
2023/11/14 01:15:13;;;;;;;;;;;;;;;;;;5003514;28;20482;-68
2023/11/14 01:17:39;;;;;;;;;;;;;;;;;;5012829;28;20338;-68
2023/11/14 01:20:05;;;;;;;;;;;;;;;;;;5005650;28;19933;-67
2023/11/14 01:22:31;;;;;;;;;;;;;;;;;;5014748;28;22487;-69
2023/11/14 01:24:57;;;;;;;;;;;;;;;;;;5018089;28;20331;-69
2023/11/14 01:27:24;;;;;;;;;;;;;;;;;;5001444;28;20363;-67
2023/11/14 01:29:50;;;;;;;;;;;;;;;;;;5006009;28;20252;-67
2023/11/14 01:32:16;;;;;;;;;;;;;;;;;;5001031;28;20354;-67
2023/11/14 01:34:42;;;;;;;;;;;;;;;;;;5004292;28;20213;-67
2023/11/14 01:37:09;;;;;;;;;;;;;;;;;;5004152;28;20449;-67
2023/11/14 01:39:35;;;;;;;;;;;;;;;;;;5015621;28;19971;-68
2023/11/14 01:42:01;;;;;;;;;;;;;;;;;;5001756;28;19921;-68
2023/11/14 01:44:27;;;;;;;;;;;;;;;;;;5003597;28;19928;-68
2023/11/14 01:46:53;;;;;;;;;;;;;;;;;;5007265;28;20084;-68
2023/11/14 01:49:19;;;;;;;;;;;;;;;;;;5013277;28;19916;-67
2023/11/14 01:51:45;;;;;;;;;;;;;;;;;;5008383;28;20296;-67
2023/11/14 01:54:11;;;;;;;;;;;;;;;;;;5005262;28;20148;-67
2023/11/14 01:56:37;;;;;;;;;;;;;;;;;;5005928;28;20126;-68
2023/11/14 01:59:03;;;;;;;;;;;;;;;;;;5009353;28;20348;-67
2023/11/14 02:01:29;;;;;;;;;;;;;;;;;;5000002;28;20433;-67
2023/11/14 02:03:55;;;;;;;;;;;;;;;;;;5025200;28;19917;-67
2023/11/14 02:06:21;;;;;;;;;;;;;;;;;;5001225;28;19921;-69
2023/11/14 02:08:47;;;;;;;;;;;;;;;;;;5003876;28;20428;-67
2023/11/14 02:11:13;;;;;;;;;;;;;;;;;;5007149;28;19916;-68
2023/11/14 02:13:43;;;;;;;;;;;;;;;;;;5004366;28;19986;-67
2023/11/14 02:16:09;;;;;;;;;;;;;;;;;;5004625;28;20587;-68
2023/11/14 02:18:35;;;;;;;;;;;;;;;;;;5004627;28;20015;-66
2023/11/14 02:21:01;;;;;;;;;;;;;;;;;;5010473;28;20256;-68
2023/11/14 02:23:27;;;;;;;;;;;;;;;;;;5001919;28;19917;-68
2023/11/14 02:25:53;;;;;;;;;;;;;;;;;;5005215;28;19979;-68
2023/11/14 02:28:19;;;;;;;;;;;;;;;;;;4998721;28;19917;-67
2023/11/14 02:30:45;;;;;;;;;;;;;;;;;;5004016;28;19928;-68
2023/11/14 02:33:11;;;;;;;;;;;;;;;;;;5007877;28;19917;-69
2023/11/14 02:35:37;;;;;;;;;;;;;;;;;;5025386;28;19917;-68
2023/11/14 02:38:03;;;;;;;;;;;;;;;;;;5010878;28;20460;-68
2023/11/14 02:40:29;;;;;;;;;;;;;;;;;;5010245;28;19963;-68
2023/11/14 02:42:55;;;;;;;;;;;;;;;;;;5012431;28;20319;-69
2023/11/14 02:45:21;;;;;;;;;;;;;;;;;;5009515;28;19916;-68
2023/11/14 02:47:47;;;;;;;;;;;;;;;;;;5004001;28;20013;-68
2023/11/14 02:50:14;;;;;;;;;;;;;;;;;;5010153;28;19978;-67
2023/11/14 02:52:40;;;;;;;;;;;;;;;;;;5024702;28;19925;-67
2023/11/14 02:55:06;;;;;;;;;;;;;;;;;;5010757;28;19916;-69
2023/11/14 02:57:32;;;;;;;;;;;;;;;;;;5008955;28;20225;-67
2023/11/14 02:59:58;;;;;;;;;;;;;;;;;;5028565;28;20458;-67
2023/11/14 03:02:25;;;;;;;;;;;;;;;;;;5000693;28;20662;-67
2023/11/14 03:04:52;;;;;;;;;;;;;;;;;;5010524;28;19960;-67
2023/11/14 03:07:18;;;;;;;;;;;;;;;;;;5006605;28;20390;-68
2023/11/14 03:09:44;;;;;;;;;;;;;;;;;;5003158;28;19921;-67
2023/11/14 03:12:10;;;;;;;;;;;;;;;;;;5006854;28;19924;-68
2023/11/14 03:14:36;;;;;;;;;;;;;;;;;;5004803;28;19916;-68
2023/11/14 03:17:02;;;;;;;;;;;;;;;;;;5008649;28;19917;-69
2023/11/14 03:19:29;;;;;;;;;;;;;;;;;;5004302;28;19916;-68
2023/11/14 03:21:55;;;;;;;;;;;;;;;;;;5010431;28;20028;-66
2023/11/14 03:24:21;;;;;;;;;;;;;;;;;;5006881;28;19917;-66
2023/11/14 03:26:47;;;;;;;;;;;;;;;;;;5023387;28;20468;-69
2023/11/14 03:29:13;;;;;;;;;;;;;;;;;;5007802;28;19913;-66
2023/11/14 03:31:39;;;;;;;;;;;;;;;;;;5006926;28;19923;-69
2023/11/14 03:34:05;;;;;;;;;;;;;;;;;;5005761;28;20121;-66
2023/11/14 03:36:31;;;;;;;;;;;;;;;;;;5001246;28;19920;-69
2023/11/14 03:38:57;;;;;;;;;;;;;;;;;;5005529;28;19913;-70
2023/11/14 03:41:23;;;;;;;;;;;;;;;;;;5017977;28;20236;-67
2023/11/14 03:43:49;;;;;;;;;;;;;;;;;;5005443;28;19917;-69
2023/11/14 03:46:15;;;;;;;;;;;;;;;;;;5004220;28;19933;-67
2023/11/14 03:48:41;;;;;;;;;;;;;;;;;;5019003;28;19984;-68
2023/11/14 03:51:09;;;;;;;;;;;;;;;;;;5005508;28;20532;-68
2023/11/14 03:53:35;;;;;;;;;;;;;;;;;;5005697;28;19956;-67
2023/11/14 03:56:01;;;;;;;;;;;;;;;;;;5008951;28;20019;-67
2023/11/14 03:58:27;;;;;;;;;;;;;;;;;;5003924;28;20323;-69
2023/11/14 04:00:53;;;;;;;;;;;;;;;;;;5008180;28;20205;-68
2023/11/14 04:03:19;;;;;;;;;;;;;;;;;;5005828;28;19924;-67
2023/11/14 04:05:45;;;;;;;;;;;;;;;;;;5009089;28;19919;-67
2023/11/14 04:08:11;;;;;;;;;;;;;;;;;;5019011;28;20016;-67
2023/11/14 04:10:37;;;;;;;;;;;;;;;;;;5005738;28;20032;-67
2023/11/14 04:13:03;;;;;;;;;;;;;;;;;;5007513;28;19924;-66
2023/11/14 04:15:30;;;;;;;;;;;;;;;;;;5000528;28;20086;-67
2023/11/14 04:17:56;;;;;;;;;;;;;;;;;;5015368;28;20344;-67
2023/11/14 04:20:22;;;;;;;;;;;;;;;;;;4999828;28;20295;-67
2023/11/14 04:22:48;;;;;;;;;;;;;;;;;;5009060;28;19921;-68
2023/11/14 04:25:14;;;;;;;;;;;;;;;;;;5001030;28;19921;-69
2023/11/14 04:27:40;;;;;;;;;;;;;;;;;;5009544;28;19921;-67
2023/11/14 04:30:08;;;;;;;;;;;;;;;;;;5007341;28;19917;-67
2023/11/14 04:32:34;;;;;;;;;;;;;;;;;;5006528;28;19917;-67
2023/11/14 04:35:00;;;;;;;;;;;;;;;;;;5010572;28;20358;-69
2023/11/14 04:37:25;;;;;;;;;;;;;;;;;;5004691;28;20266;-68
2023/11/14 04:39:51;;;;;;;;;;;;;;;;;;5018499;28;20015;-67
2023/11/14 04:42:17;;;;;;;;;;;;;;;;;;5002410;28;19970;-67
2023/11/14 04:44:43;;;;;;;;;;;;;;;;;;5004919;28;20669;-69
2023/11/14 04:47:10;;;;;;;;;;;;;;;;;;5020432;28;20126;-67
2023/11/14 04:49:36;;;;;;;;;;;;;;;;;;5005511;28;20263;-67
2023/11/14 04:52:02;;;;;;;;;;;;;;;;;;5006694;28;19924;-67
2023/11/14 04:54:28;;;;;;;;;;;;;;;;;;5019511;28;19918;-67
2023/11/14 04:56:54;;;;;;;;;;;;;;;;;;5008048;28;19982;-67
2023/11/14 04:59:20;;;;;;;;;;;;;;;;;;5006579;28;20448;-67
2023/11/14 05:01:47;;;;;;;;;;;;;;;;;;5004341;28;19921;-68
2023/11/14 05:04:13;;;;;;;;;;;;;;;;;;5002525;28;19944;-68
2023/11/14 05:06:39;;;;;;;;;;;;;;;;;;5005910;28;20396;-67
2023/11/14 05:09:05;;;;;;;;;;;;;;;;;;5006293;28;20001;-67
2023/11/14 05:11:31;;;;;;;;;;;;;;;;;;5005839;28;21216;-66
2023/11/14 05:13:57;;;;;;;;;;;;;;;;;;5012658;28;20124;-67
2023/11/14 05:16:23;;;;;;;;;;;;;;;;;;5001929;28;19924;-67
2023/11/14 05:18:49;;;;;;;;;;;;;;;;;;5006605;28;19972;-68
2023/11/14 05:21:15;;;;;;;;;;;;;;;;;;5003556;28;19929;-67
2023/11/14 05:23:41;;;;;;;;;;;;;;;;;;5007201;28;19924;-67
2023/11/14 05:26:07;;;;;;;;;;;;;;;;;;5007662;28;19917;-68
2023/11/14 05:28:34;;;;;;;;;;;;;;;;;;5018412;28;19918;-66
2023/11/14 05:31:00;;;;;;;;;;;;;;;;;;5004024;28;19944;-68
2023/11/14 05:33:26;;;;;;;;;;;;;;;;;;5019112;28;19921;-68
2023/11/14 05:35:52;;;;;;;;;;;;;;;;;;5008688;28;19925;-67
2023/11/14 05:38:18;;;;;;;;;;;;;;;;;;5003514;28;20054;-68
2023/11/14 05:40:44;;;;;;;;;;;;;;;;;;5024182;28;20319;-68
2023/11/14 05:43:10;;;;;;;;;;;;;;;;;;5008376;28;19927;-69
2023/11/14 05:45:36;;;;;;;;;;;;;;;;;;5012840;28;20316;-67
2023/11/14 05:48:04;;;;;;;;;;;;;;;;;;5009137;28;19924;-73
2023/11/14 05:50:30;;;;;;;;;;;;;;;;;;5000365;28;20734;-73
2023/11/14 05:52:56;;;;;;;;;;;;;;;;;;5008181;28;19917;-71
2023/11/14 05:55:22;;;;;;;;;;;;;;;;;;5000866;28;20446;-71
2023/11/14 05:57:48;;;;;;;;;;;;;;;;;;5004386;28;19956;-72
2023/11/14 06:00:15;;;;;;;;;;;;;;;;;;5006672;28;20008;-73
2023/11/14 06:02:41;;;;;;;;;;;;;;;;;;5003929;28;19931;-73
2023/11/14 06:05:07;;;;;;;;;;;;;;;;;;5009048;28;19917;-74
2023/11/14 06:07:33;;;;;;;;;;;;;;;;;;5002287;28;19925;-71
2023/11/14 06:09:59;;;;;;;;;;;;;;;;;;5010524;28;19917;-71
2023/11/14 06:12:25;;;;;;;;;;;;;;;;;;4996225;28;19917;-72
2023/11/14 06:14:51;;;;;;;;;;;;;;;;;;5004600;28;20383;-72
2023/11/14 06:17:16;;;;;;;;;;;;;;;;;;5003772;28;19928;-71
2023/11/14 06:19:42;;;;;;;;;;;;;;;;;;5007162;28;19921;-71
2023/11/14 06:22:11;;;;;;;;;;;;;;;;;;5001566;28;20739;-72
2023/11/14 06:24:37;;;;;;;;;;;;;;;;;;5007000;28;20322;-72
2023/11/14 06:27:03;;;;;;;;;;;;;;;;;;5009006;28;20331;-73
2023/11/14 06:29:29;;;;;;;;;;;;;;;;;;5001503;28;20430;-71
2023/11/14 06:31:55;;;;;;;;;;;;;;;;;;5007146;28;20198;-72
2023/11/14 06:34:21;;;;;;;;;;;;;;;;;;5004707;28;19917;-71
2023/11/14 06:36:47;;;;;;;;;;;;;;;;;;5007594;28;19942;-72
2023/11/14 06:39:13;;;;;;;;;;;;;;;;;;5017881;28;20413;-74
2023/11/14 06:41:39;;;;;;;;;;;;;;;;;;5006009;28;20436;-71
2023/11/14 06:44:05;;;;;;;;;;;;;;;;;;5009291;28;19917;-72
2023/11/14 06:46:31;;;;;;;;;;;;;;;;;;5002560;28;20271;-74
2023/11/14 06:48:57;;;;;;;;;;;;;;;;;;5003145;28;19923;-73
2023/11/14 06:51:23;;;;;;;;;;;;;;;;;;5016748;28;20380;-73
2023/11/14 06:53:49;;;;;;;;;;;;;;;;;;5008411;28;19925;-73
2023/11/14 06:56:15;;;;;;;;;;;;;;;;;;5003942;28;19913;-72
2023/11/14 06:58:41;;;;;;;;;;;;;;;;;;5020026;28;19921;-71
2023/11/14 07:01:07;;;;;;;;;;;;;;;;;;5004760;28;20711;-73
2023/11/14 07:03:33;;;;;;;;;;;;;;;;;;5006872;28;20536;-72
2023/11/14 07:05:59;;;;;;;;;;;;;;;;;;5004412;28;19917;-72
2023/11/14 07:08:25;;;;;;;;;;;;;;;;;;5005662;28;19918;-71
2023/11/14 07:10:51;;;;;;;;;;;;;;;;;;5007994;28;19917;-73
2023/11/14 07:13:17;;;;;;;;;;;;;;;;;;5002959;28;19917;-72
2023/11/14 07:15:43;;;;;;;;;;;;;;;;;;5009045;28;19917;-71
2023/11/14 07:18:10;;;;;;;;;;;;;;;;;;5010780;28;19959;-72
2023/11/14 07:20:36;;;;;;;;;;;;;;;;;;5004336;28;19998;-74
2023/11/14 07:23:02;;;;;;;;;;;;;;;;;;5007684;28;19960;-74
2023/11/14 07:25:29;;;;;;;;;;;;;;;;;;5022814;28;20509;-74
2023/11/14 07:27:55;;;;;;;;;;;;;;;;;;5012110;28;20489;-73
2023/11/14 07:30:22;;;;;;;;;;;;;;;;;;5005352;28;20208;-74
2023/11/14 07:32:48;;;;;;;;;;;;;;;;;;5008712;28;19920;-72
2023/11/14 07:35:14;;;;;;;;;;;;;;;;;;5006006;28;19979;-73
2023/11/14 07:37:40;;;;;;;;;;;;;;;;;;5008943;28;19972;-72
2023/11/14 07:40:06;;;;;;;;;;;;;;;;;;5005391;28;20019;-73
2023/11/14 07:42:32;;;;;;;;;;;;;;;;;;5006276;28;19931;-73
2023/11/14 07:44:58;;;;;;;;;;;;;;;;;;5021869;28;19921;-72
2023/11/14 07:47:24;;;;;;;;;;;;;;;;;;5002089;28;20165;-72
2023/11/14 07:49:50;;;;;;;;;;;;;;;;;;5003155;28;19918;-72
2023/11/14 07:52:16;;;;;;;;;;;;;;;;;;5013895;28;20383;-72
2023/11/14 07:54:42;;;;;;;;;;;;;;;;;;5018135;28;20243;-73
2023/11/14 07:57:08;;;;;;;;;;;;;;;;;;5006879;28;19947;-73
2023/11/14 07:59:34;;;;;;;;;;;;;;;;;;5004978;28;19922;-72
2023/11/14 08:02:01;;;;;;;;;;;;;;;;;;5008251;28;20029;-71
2023/11/14 08:04:27;;;;;;;;;;;;;;;;;;5004376;28;19917;-72
2023/11/14 08:06:53;;;;;;;;;;;;;;;;;;5008450;28;19963;-72
2023/11/14 08:09:20;;;;;;;;;;;;;;;;;;5005479;28;19925;-72
2023/11/14 08:11:46;;;;;;;;;;;;;;;;;;5007479;28;20829;-71
2023/11/14 08:14:12;;;;;;;;;;;;;;;;;;5006998;28;19917;-74
2023/11/14 08:16:38;;;;;;;;;;;;;;;;;;5012272;28;19924;-72
2023/11/14 08:19:04;;;;;;;;;;;;;;;;;;5009349;28;20283;-71
2023/11/14 08:21:30;;;;;;;;;;;;;;;;;;5003258;28;20379;-72
2023/11/14 08:23:56;;;;;;;;;;;;;;;;;;5016566;28;20035;-73
2023/11/14 08:26:22;;;;;;;;;;;;;;;;;;5015539;28;20062;-71
2023/11/14 08:28:48;;;;;;;;;;;;;;;;;;5010791;28;20301;-72
2023/11/14 08:31:14;;;;;;;;;;;;;;;;;;5008474;28;19946;-73
2023/11/14 08:33:42;;;;;;;;;;;;;;;;;;5010710;28;19929;-72
2023/11/14 08:36:08;;;;;;;;;;;;;;;;;;5023794;28;19970;-74
2023/11/14 08:38:34;;;;;;;;;;;;;;;;;;5009276;28;19917;-73
2023/11/14 08:41:01;;;;;;;;;;;;;;;;;;5008439;28;19932;-71
2023/11/14 08:43:27;;;;;;;;;;;;;;;;;;5006981;28;19948;-72
2023/11/14 08:45:54;;;;;;;;;;;;;;;;;;5022865;28;20645;-71
2023/11/14 08:48:21;;;;;;;;;;;;;;;;;;5018372;28;19922;-72
2023/11/14 08:50:47;;;;;;;;;;;;;;;;;;5014498;28;20048;-73
2023/11/14 08:53:13;;;;;;;;;;;;;;;;;;5024556;28;20287;-71
2023/11/14 08:55:39;;;;;;;;;;;;;;;;;;5014574;28;20341;-73
2023/11/14 08:58:06;;;;;;;;;;;;;;;;;;5012034;28;20594;-73
2023/11/14 09:00:32;;;;;;;;;;;;;;;;;;5021117;28;21691;-73
2023/11/14 09:02:58;;;;;;;;;;;;;;;;;;5006821;28;19929;-73
2023/11/14 09:05:24;;;;;;;;;;;;;;;;;;5008258;28;19948;-73
2023/11/14 09:07:50;;;;;;;;;;;;;;;;;;5009557;28;19924;-73
2023/11/14 09:10:16;;;;;;;;;;;;;;;;;;5008137;28;19917;-73
2023/11/14 09:12:42;;;;;;;;;;;;;;;;;;5009487;28;20290;-74
2023/11/14 09:15:09;;;;;;;;;;;;;;;;;;5014633;28;20442;-73
2023/11/14 09:17:35;;;;;;;;;;;;;;;;;;5003561;28;19997;-72
2023/11/14 09:20:01;;;;;;;;;;;;;;;;;;5012235;28;19930;-73
2023/11/14 09:22:30;;;;;;;;;;;;;;;;;;5011869;28;20374;-73
2023/11/14 09:24:56;;;;;;;;;;;;;;;;;;5005942;28;20231;-73
2023/11/14 09:27:25;;;;;;;;;;;;;;;;;;5006497;28;19923;-72
2023/11/14 09:29:51;;;;;;;;;;;;;;;;;;5009169;28;19968;-72
2023/11/14 09:32:21;;;;;;;;;;;;;;;;;;5021375;28;20043;-75
2023/11/14 09:34:47;;;;;;;;;;;;;;;;;;5007762;28;19917;-72
2023/11/14 09:37:13;;;;;;;;;;;;;;;;;;5020600;28;19921;-73
2023/11/14 09:39:39;;;;;;;;;;;;;;;;;;5027078;28;20843;-72
2023/11/14 09:42:05;;;;;;;;;;;;;;;;;;5009879;28;20020;-73
2023/11/14 09:44:31;;;;;;;;;;;;;;;;;;5002788;28;20012;-72
2023/11/14 09:46:57;;;;;;;;;;;;;;;;;;5012109;28;19920;-72
2023/11/14 09:49:23;;;;;;;;;;;;;;;;;;5005868;28;19925;-72
2023/11/14 09:51:49;;;;;;;;;;;;;;;;;;5010141;28;19929;-72
2023/11/14 09:54:15;;;;;;;;;;;;;;;;;;5003788;28;19917;-71
2023/11/14 09:56:40;;;;;;;;;;;;;;;;;;5026156;28;20441;-71
2023/11/14 09:59:08;;;;;;;;;;;;;;;;;;5010151;28;20802;-70
2023/11/14 10:01:34;;;;;;;;;;;;;;;;;;5005332;28;19921;-71
2023/11/14 10:04:00;;;;;;;;;;;;;;;;;;5006882;28;20338;-73
2023/11/14 10:06:25;;;;;;;;;;;;;;;;;;5010803;28;20572;-73
2023/11/14 10:08:52;;;;;;;;;;;;;;;;;;5009933;28;20028;-72
2023/11/14 10:11:18;;;;;;;;;;;;;;;;;;5008186;28;19924;-72
2023/11/14 10:13:44;;;;;;;;;;;;;;;;;;5008130;28;19917;-72
2023/11/14 10:16:10;;;;;;;;;;;;;;;;;;5013089;28;20306;-72
2023/11/14 10:18:36;;;;;;;;;;;;;;;;;;5007797;28;20356;-71
2023/11/14 10:21:02;;;;;;;;;;;;;;;;;;5009265;28;20598;-71
2023/11/14 10:23:28;;;;;;;;;;;;;;;;;;5007725;28;19925;-73
2023/11/14 10:25:53;;;;;;;;;;;;;;;;;;5004656;28;19917;-71
2023/11/14 10:28:19;;;;;;;;;;;;;;;;;;5004534;28;19924;-71
2023/11/14 10:30:45;;;;;;;;;;;;;;;;;;5012049;28;19913;-72
2023/11/14 10:33:11;;;;;;;;;;;;;;;;;;5004534;28;20312;-71
2023/11/14 10:35:37;;;;;;;;;;;;;;;;;;5016483;28;20168;-70
2023/11/14 10:38:03;;;;;;;;;;;;;;;;;;5008858;28;19924;-73
2023/11/14 10:40:29;;;;;;;;;;;;;;;;;;4997805;28;20091;-72
2023/11/14 10:42:56;;;;;;;;;;;;;;;;;;5007485;28;19922;-72
2023/11/14 10:45:22;;;;;;;;;;;;;;;;;;5003213;28;20456;-72
2023/11/14 10:47:47;;;;;;;;;;;;;;;;;;5009723;28;20432;-73
2023/11/14 10:50:14;;;;;;;;;;;;;;;;;;5002151;28;20043;-71
2023/11/14 10:52:41;;;;;;;;;;;;;;;;;;5004188;28;20335;-71
2023/11/14 10:55:07;;;;;;;;;;;;;;;;;;5006209;28;19923;-72
2023/11/14 10:57:33;;;;;;;;;;;;;;;;;;5003655;28;19917;-72
2023/11/14 10:59:59;;;;;;;;;;;;;;;;;;5009219;28;20368;-72
2023/11/14 11:02:29;;;;;;;;;;;;;;;;;;5003327;28;20319;-72
2023/11/14 11:04:56;;;;;;;;;;;;;;;;;;5010144;28;19928;-72
2023/11/14 11:07:22;;;;;;;;;;;;;;;;;;5007344;28;19917;-70
2023/11/14 11:09:49;;;;;;;;;;;;;;;;;;5011161;28;19923;-70
2023/11/14 11:12:15;;;;;;;;;;;;;;;;;;5004776;28;20000;-71
2023/11/14 11:14:41;;;;;;;;;;;;;;;;;;5025572;28;20363;-70
2023/11/14 11:17:07;;;;;;;;;;;;;;;;;;5010570;28;20393;-71
2023/11/14 11:19:33;;;;;;;;;;;;;;;;;;5006342;28;19924;-71
2023/11/14 11:21:59;;;;;;;;;;;;;;;;;;5010819;28;19930;-70
2023/11/14 11:24:29;;;;;;;;;;;;;;;;;;5020606;28;20027;-71
2023/11/14 11:26:54;;;;;;;;;;;;;;;;;;5012158;28;19913;-72
2023/11/14 11:29:20;;;;;;;;;;;;;;;;;;5009582;28;20283;-71
2023/11/14 11:31:46;;;;;;;;;;;;;;;;;;5008764;28;20739;-70
2023/11/14 11:34:12;;;;;;;;;;;;;;;;;;5010174;28;20381;-73
2023/11/14 11:36:38;;;;;;;;;;;;;;;;;;5006885;28;19913;-71
2023/11/14 11:39:04;;;;;;;;;;;;;;;;;;5010632;28;19917;-73
2023/11/14 11:41:32;;;;;;;;;;;;;;;;;;5005163;28;19932;-70
2023/11/14 11:43:58;;;;;;;;;;;;;;;;;;5021778;28;19922;-71
2023/11/14 11:46:24;;;;;;;;;;;;;;;;;;5010027;28;20283;-72
2023/11/14 11:48:50;;;;;;;;;;;;;;;;;;5014569;28;20392;-70
2023/11/14 11:51:16;;;;;;;;;;;;;;;;;;5013397;28;20478;-70
2023/11/14 11:53:42;;;;;;;;;;;;;;;;;;5012233;28;20535;-72
2023/11/14 11:56:10;;;;;;;;;;;;;;;;;;5018617;28;19921;-72
2023/11/14 11:58:36;;;;;;;;;;;;;;;;;;5009986;28;20368;-72
2023/11/14 12:01:02;;;;;;;;;;;;;;;;;;5008537;28;19921;-71
2023/11/14 12:03:28;;;;;;;;;;;;;;;;;;5022166;28;21042;-71
2023/11/14 12:05:54;;;;;;;;;;;;;;;;;;5005731;28;20081;-71
2023/11/14 12:08:20;;;;;;;;;;;;;;;;;;5007050;28;20374;-70
2023/11/14 12:10:46;;;;;;;;;;;;;;;;;;5024998;28;19917;-70
2023/11/14 12:13:12;;;;;;;;;;;;;;;;;;5010549;28;19914;-73
2023/11/14 12:15:38;;;;;;;;;;;;;;;;;;5012461;28;19924;-70
2023/11/14 12:18:06;;;;;;;;;;;;;;;;;;5011581;28;19978;-72
2023/11/14 12:20:32;;;;;;;;;;;;;;;;;;5008562;28;20123;-71
2023/11/14 12:22:58;;;;;;;;;;;;;;;;;;5015667;28;20430;-72
2023/11/14 12:25:25;;;;;;;;;;;;;;;;;;5006884;28;20281;-71
2023/11/14 12:27:51;;;;;;;;;;;;;;;;;;5014032;28;19916;-73
2023/11/14 12:30:17;;;;;;;;;;;;;;;;;;5005909;28;19917;-70
2023/11/14 12:32:43;;;;;;;;;;;;;;;;;;5020285;28;19917;-71
2023/11/14 12:35:09;;;;;;;;;;;;;;;;;;5011387;28;19917;-72
2023/11/14 12:37:35;;;;;;;;;;;;;;;;;;5006391;28;19953;-72
2023/11/14 12:40:01;;;;;;;;;;;;;;;;;;5006765;28;20843;-72
2023/11/14 12:42:27;;;;;;;;;;;;;;;;;;5005915;28;19925;-72
2023/11/14 12:44:54;;;;;;;;;;;;;;;;;;5014388;28;19940;-72
2023/11/14 12:47:20;;;;;;;;;;;;;;;;;;5013312;28;19917;-72
2023/11/14 12:49:46;;;;;;;;;;;;;;;;;;5013657;28;19924;-72
2023/11/14 12:52:12;;;;;;;;;;;;;;;;;;5011727;28;19932;-72
2023/11/14 12:54:38;;;;;;;;;;;;;;;;;;5014234;28;19995;-70
2023/11/14 12:57:05;;;;;;;;;;;;;;;;;;5011697;28;20388;-71
2023/11/14 12:59:31;;;;;;;;;;;;;;;;;;5003889;28;19917;-72
2023/11/14 13:01:57;;;;;;;;;;;;;;;;;;5011734;28;19927;-71
2023/11/14 13:04:23;;;;;;;;;;;;;;;;;;5007749;28;20016;-71
2023/11/14 13:06:49;;;;;;;;;;;;;;;;;;5012109;28;19986;-71
2023/11/14 13:09:16;;;;;;;;;;;;;;;;;;5008124;28;20408;-73
2023/11/14 13:11:42;;;;;;;;;;;;;;;;;;5011800;28;20084;-73
2023/11/14 13:14:08;;;;;;;;;;;;;;;;;;5013573;28;20336;-71
2023/11/14 13:16:35;;;;;;;;;;;;;;;;;;5008165;28;19924;-72
2023/11/14 13:19:01;;;;;;;;;;;;;;;;;;5009995;28;20023;-73
2023/11/14 13:21:27;;;;;;;;;;;;;;;;;;5002419;28;20344;-72
2023/11/14 13:23:53;;;;;;;;;;;;;;;;;;5009546;28;19921;-71
2023/11/14 13:26:22;;;;;;;;;;;;;;;;;;5006894;28;19991;-72
2023/11/14 13:28:48;;;;;;;;;;;;;;;;;;5002670;28;19921;-71
2023/11/14 13:31:14;;;;;;;;;;;;;;;;;;5002270;28;19994;-71
2023/11/14 13:33:40;;;;;;;;;;;;;;;;;;5005884;28;20347;-71
2023/11/14 13:36:06;;;;;;;;;;;;;;;;;;5007289;28;19928;-71
2023/11/14 13:38:36;;;;;;;;;;;;;;;;;;5002879;28;20006;-70
2023/11/14 13:41:02;;;;;;;;;;;;;;;;;;5001905;28;20331;-73
2023/11/14 13:43:27;;;;;;;;;;;;;;;;;;5002729;28;19921;-72
2023/11/14 13:45:54;;;;;;;;;;;;;;;;;;5003590;28;19917;-72
2023/11/14 13:48:20;;;;;;;;;;;;;;;;;;5002423;28;19960;-72
2023/11/14 13:50:46;;;;;;;;;;;;;;;;;;5005281;28;19917;-73
2023/11/14 13:53:12;;;;;;;;;;;;;;;;;;5003004;28;19947;-72
2023/11/14 13:55:39;;;;;;;;;;;;;;;;;;5001833;28;20441;-71
2023/11/14 13:58:05;;;;;;;;;;;;;;;;;;5019895;28;20002;-71
2023/11/14 14:00:31;;;;;;;;;;;;;;;;;;5015619;28;20018;-71
2023/11/14 14:02:57;;;;;;;;;;;;;;;;;;5009223;28;20019;-71
2023/11/14 14:05:23;;;;;;;;;;;;;;;;;;5002207;28;19998;-73
2023/11/14 14:07:49;;;;;;;;;;;;;;;;;;5005258;28;20039;-72
2023/11/14 14:10:15;;;;;;;;;;;;;;;;;;4996527;28;19925;-70
2023/11/14 14:12:42;;;;;;;;;;;;;;;;;;5014231;28;20000;-71
2023/11/14 14:15:09;;;;;;;;;;;;;;;;;;5009844;28;20183;-73
2023/11/14 14:17:35;;;;;;;;;;;;;;;;;;5019334;28;20235;-71
2023/11/14 14:20:03;;;;;;;;;;;;;;;;;;5003696;28;19932;-72
2023/11/14 14:22:30;;;;;;;;;;;;;;;;;;5004735;28;19983;-72
2023/11/14 14:24:58;;;;;;;;;;;;;;;;;;5005884;28;19982;-73
2023/11/14 14:27:24;;;;;;;;;;;;;;;;;;5007532;28;20015;-72
2023/11/14 14:29:50;;;;;;;;;;;;;;;;;;5002120;28;20429;-72
2023/11/14 14:32:18;;;;;;;;;;;;;;;;;;5005174;28;19917;-72
2023/11/14 14:34:45;;;;;;;;;;;;;;;;;;5007135;28;19948;-71
2023/11/14 14:37:11;;;;;;;;;;;;;;;;;;5009287;28;19924;-72
2023/11/14 14:39:41;;;;;;;;;;;;;;;;;;5005485;28;19917;-72
2023/11/14 14:42:06;;;;;;;;;;;;;;;;;;5008107;28;19920;-72
2023/11/14 14:44:34;;;;;;;;;;;;;;;;;;4998828;28;19921;-72
2023/11/14 14:47:01;;;;;;;;;;;;;;;;;;5024949;28;19923;-71
2023/11/14 14:49:27;;;;;;;;;;;;;;;;;;4997799;28;20225;-72
2023/11/14 14:51:53;;;;;;;;;;;;;;;;;;5024202;28;19945;-69
2023/11/14 14:54:19;;;;;;;;;;;;;;;;;;4998119;28;20469;-71
2023/11/14 14:56:47;;;;;;;;;;;;;;;;;;5007488;28;20760;-74
2023/11/14 14:59:13;;;;;;;;;;;;;;;;;;5008973;28;19916;-74
2023/11/14 15:01:40;;;;;;;;;;;;;;;;;;5004011;28;20424;-72
2023/11/14 15:04:06;;;;;;;;;;;;;;;;;;5003103;28;19917;-71
2023/11/14 15:06:32;;;;;;;;;;;;;;;;;;5002944;28;19921;-71
2023/11/14 15:08:58;;;;;;;;;;;;;;;;;;5001900;28;20013;-72
2023/11/14 15:11:23;;;;;;;;;;;;;;;;;;5003404;28;20083;-73
2023/11/14 15:13:49;;;;;;;;;;;;;;;;;;5003726;28;19991;-71
2023/11/14 15:16:15;;;;;;;;;;;;;;;;;;5017985;28;19917;-73
2023/11/14 15:18:42;;;;;;;;;;;;;;;;;;5022989;28;19917;-72
2023/11/14 15:21:08;;;;;;;;;;;;;;;;;;5003430;28;19920;-71
2023/11/14 15:23:34;;;;;;;;;;;;;;;;;;5015179;28;19957;-70
2023/11/14 15:26:03;;;;;;;;;;;;;;;;;;5011051;28;19999;-71
2023/11/14 15:28:29;;;;;;;;;;;;;;;;;;5007503;28;19933;-73
2023/11/14 15:30:56;;;;;;;;;;;;;;;;;;5011023;28;19920;-71
2023/11/14 15:33:21;;;;;;;;;;;;;;;;;;4999709;28;20314;-73
2023/11/14 15:35:47;;;;;;;;;;;;;;;;;;5005299;28;19928;-72
2023/11/14 15:38:14;;;;;;;;;;;;;;;;;;4999795;28;20003;-71
2023/11/14 15:40:40;;;;;;;;;;;;;;;;;;5008597;28;19985;-71
2023/11/14 15:43:06;;;;;;;;;;;;;;;;;;5007064;28;20446;-72
2023/11/14 15:45:33;;;;;;;;;;;;;;;;;;5006214;28;22995;-70
2023/11/14 15:47:59;;;;;;;;;;;;;;;;;;5010639;28;19992;-73
2023/11/14 15:50:25;;;;;;;;;;;;;;;;;;5007627;28;20386;-72
2023/11/14 15:52:51;;;;;;;;;;;;;;;;;;5011880;28;20430;-72
2023/11/14 15:55:17;;;;;;;;;;;;;;;;;;5007590;28;20370;-72
2023/11/14 15:57:43;;;;;;;;;;;;;;;;;;5007059;28;19970;-71
2023/11/14 16:00:10;;;;;;;;;;;;;;;;;;5025671;28;19917;-72
2023/11/14 16:02:37;;;;;;;;;;;;;;;;;;5002784;28;20016;-73
2023/11/14 16:05:03;;;;;;;;;;;;;;;;;;5021051;28;20473;-71
2023/11/14 16:07:29;;;;;;;;;;;;;;;;;;5007388;28;20684;-71
2023/11/14 16:09:55;;;;;;;;;;;;;;;;;;5004936;28;19914;-72
2023/11/14 16:12:22;;;;;;;;;;;;;;;;;;5010515;28;19927;-72
2023/11/14 16:14:49;;;;;;;;;;;;;;;;;;5004545;28;20015;-71
2023/11/14 16:17:15;;;;;;;;;;;;;;;;;;5005294;28;20470;-72
2023/11/14 16:19:41;;;;;;;;;;;;;;;;;;5006416;28;19925;-72
2023/11/14 16:22:07;;;;;;;;;;;;;;;;;;5008008;28;19929;-71
2023/11/14 16:24:33;;;;;;;;;;;;;;;;;;5002467;28;20798;-71
2023/11/14 16:27:00;;;;;;;;;;;;;;;;;;5002930;28;19925;-72
2023/11/14 16:29:26;;;;;;;;;;;;;;;;;;5023968;28;19928;-73
2023/11/14 16:31:52;;;;;;;;;;;;;;;;;;5007636;28;19924;-72
2023/11/14 16:34:18;;;;;;;;;;;;;;;;;;5003313;28;19917;-72
2023/11/14 16:36:44;;;;;;;;;;;;;;;;;;5010596;28;19917;-71
2023/11/14 16:39:10;;;;;;;;;;;;;;;;;;5008982;28;19924;-71